Copt Green, United Kingdom
Current Conditions -  °F | °C
As of 4:20 PM on Monday 24 Nov 2014 (Local Time) from EGBB Reporting Station
Clear Clear  
Wind Chill: 41°   Ceiling: Unl
Heat Index: 41°   Visibility: 6mi
Dew Point: 37°   Wind: 3mph
Humidity: 87%   Direction: 170°S
Pressure: 30.3"   Gusts: NA
Location:  52.34°N, 1.81°W
Report Text: EGBB 241620Z 17003KT CAVOK 05/03 Q1026
Loading
Personal Weather Stations






























Interactive Weather Map New forecast layout! Learn more

10-Day Weather Forecast

Advertisements
Track Severe Weather on mobile